Time;durP1;ratioP1;P1;durP2;ratioP2;P2;SDS_P1;SDS_P2;PMS_P1;PMS_P2;Temp;Humidity;BMP_temperature;BMP_pressure;BME280_temperature;BME280_humidity;BME280_pressure;Samples;Min_cycle;Max_cycle;Signal;HPM_P1;HPM_P2
2021/05/08 00:02:16;;;;;;;19.20;4.27;;;;;;;3.37;83.90;101250.38;5072559;28;20709;-71
2021/05/08 00:04:41;;;;;;;14.50;3.93;;;;;;;3.37;83.58;101256.53;5055382;28;20117;-70
2021/05/08 00:07:07;;;;;;;10.97;3.97;;;;;;;3.33;83.85;101248.91;5055655;28;20043;-71
2021/05/08 00:09:32;;;;;;;16.70;4.13;;;;;;;3.37;83.82;101253.88;5046894;28;20044;-70
2021/05/08 00:11:58;;;;;;;18.93;5.43;;;;;;;3.31;83.62;101251.63;5073129;28;20039;-70
2021/05/08 00:14:25;;;;;;;15.70;5.47;;;;;;;3.26;84.03;101253.75;5072838;28;20043;-71
2021/05/08 00:16:51;;;;;;;13.05;4.43;;;;;;;3.21;84.09;101250.56;5072991;28;20466;-71
2021/05/08 00:19:16;;;;;;;21.02;5.78;;;;;;;3.17;83.96;101249.09;5072527;28;20040;-71
2021/05/08 00:21:42;;;;;;;22.43;5.27;;;;;;;3.21;84.11;101249.72;5072968;28;20035;-71
2021/05/08 00:24:08;;;;;;;12.15;4.07;;;;;;;3.13;84.43;101258.16;5055429;28;20572;-71
2021/05/08 00:26:33;;;;;;;21.45;4.85;;;;;;;3.16;84.74;101248.25;5055201;28;20093;-71
2021/05/08 00:28:59;;;;;;;23.90;4.20;;;;;;;3.24;84.90;101249.53;5054939;28;20047;-71
2021/05/08 00:31:24;;;;;;;18.33;4.00;;;;;;;3.35;84.32;101249.66;5072932;28;20036;-71
2021/05/08 00:33:50;;;;;;;11.52;3.53;;;;;;;3.34;84.03;101248.78;5072691;28;20075;-71
2021/05/08 00:36:15;;;;;;;16.37;6.23;;;;;;;3.32;84.03;101252.47;5072758;28;20031;-71
2021/05/08 00:38:41;;;;;;;13.50;5.10;;;;;;;3.30;84.14;101244.69;5054682;28;20101;-71
2021/05/08 00:41:06;;;;;;;15.60;4.40;;;;;;;3.14;83.76;101251.94;5072642;28;20879;-70
2021/05/08 00:43:35;;;;;;;11.52;4.00;;;;;;;3.17;84.22;101244.66;5064460;28;20020;-71
2021/05/08 00:46:01;;;;;;;16.50;4.72;;;;;;;3.10;84.33;101247.81;5054866;28;20108;-71
2021/05/08 00:48:28;;;;;;;19.15;4.88;;;;;;;2.99;84.69;101250.31;5072009;28;20167;-71
2021/05/08 00:50:55;;;;;;;9.45;3.67;;;;;;;3.04;84.69;101250.84;5054679;28;20036;-71
2021/05/08 00:53:21;;;;;;;16.98;4.40;;;;;;;2.97;84.54;101239.84;5072332;28;20456;-71
2021/05/08 00:55:46;;;;;;;21.38;5.45;;;;;;;2.92;84.65;101247.22;5054519;28;20036;-70
2021/05/08 00:58:12;;;;;;;18.67;4.13;;;;;;;2.84;84.98;101247.72;5054384;28;20497;-71
2021/05/08 01:00:39;;;;;;;10.57;4.05;;;;;;;2.81;85.54;101247.94;5054520;28;20039;-70
2021/05/08 01:03:07;;;;;;;17.33;4.93;;;;;;;2.93;85.62;101248.94;5072091;28;20074;-71
2021/05/08 01:05:33;;;;;;;27.35;4.72;;;;;;;2.89;85.37;101250.91;5054494;28;20173;-71
2021/05/08 01:08:02;;;;;;;16.45;5.05;;;;;;;2.86;85.39;101261.66;5054199;28;20028;-71
2021/05/08 01:10:28;;;;;;;;;;;;;;;2.87;85.35;101257.22;5054822;28;20491;-71
2021/05/08 01:12:54;;;;;;;18.35;5.97;;;;;;;2.82;85.30;101257.53;5054296;28;19912;-71
2021/05/08 01:15:20;;;;;;;16.95;4.53;;;;;;;2.73;85.13;101251.03;5070924;28;20040;-70
2021/05/08 01:17:47;;;;;;;13.65;4.10;;;;;;;2.78;85.09;101253.38;5071517;28;20037;-70
2021/05/08 01:20:13;;;;;;;18.10;4.45;;;;;;;2.68;85.07;101252.31;5054139;28;20483;-70
2021/05/08 01:22:39;;;;;;;13.50;4.50;;;;;;;2.70;85.60;101255.69;5054195;28;20028;-70
2021/05/08 01:25:07;;;;;;;9.30;4.63;;;;;;;2.75;86.11;101253.59;5054127;28;20545;-70
2021/05/08 01:27:33;;;;;;;15.38;4.35;;;;;;;2.84;86.74;101253.00;5053923;28;20041;-70
2021/05/08 01:29:59;;;;;;;20.00;5.47;;;;;;;2.80;86.29;101262.06;5053897;28;20031;-70
2021/05/08 01:32:24;;;;;;;9.60;4.50;;;;;;;2.78;86.24;101263.94;5053845;28;20047;-70
2021/05/08 01:34:50;;;;;;;19.35;6.03;;;;;;;2.74;86.13;101251.91;5071441;28;20040;-70
2021/05/08 01:37:15;;;;;;;18.47;5.43;;;;;;;2.81;86.24;101253.22;5037155;28;20037;-70
2021/05/08 01:39:41;;;;;;;31.00;5.73;;;;;;;2.90;87.01;101257.88;5053540;28;20042;-70
2021/05/08 01:42:06;;;;;;;16.50;5.33;;;;;;;2.88;86.72;101264.19;5071474;28;20123;-70
2021/05/08 01:44:32;;;;;;;19.77;5.75;;;;;;;2.84;87.07;101263.56;5053524;28;20036;-70
2021/05/08 01:46:58;;;;;;;23.50;5.97;;;;;;;2.87;86.98;101263.34;5053769;28;20032;-70
2021/05/08 01:49:24;;;;;;;14.57;4.72;;;;;;;2.99;87.06;101261.69;5071108;28;20032;-70
2021/05/08 01:51:51;;;;;;;15.65;4.57;;;;;;;3.04;86.62;101261.38;5053702;28;20032;-70
2021/05/08 01:54:16;;;;;;;19.43;5.93;;;;;;;3.01;86.27;101259.81;5053558;28;20090;-70
2021/05/08 01:56:43;;;;;;;24.60;6.33;;;;;;;2.90;86.28;101268.44;5071022;28;20047;-70
2021/05/08 01:59:14;;;;;;;28.45;4.90;;;;;;;2.98;86.58;101265.28;5053084;28;20025;-70
2021/05/08 02:01:41;;;;;;;15.70;4.03;;;;;;;2.93;86.16;101262.13;5053328;28;20032;-70
2021/05/08 02:04:09;;;;;;;16.03;4.17;;;;;;;3.06;86.98;101256.88;5053513;28;20051;-70
2021/05/08 02:06:37;;;;;;;15.40;5.75;;;;;;;3.09;86.13;101261.94;5045541;28;20525;-70
2021/05/08 02:09:20;;;;;;;15.73;4.50;;;;;;;3.12;86.20;101261.75;5055784;28;20037;-70
2021/05/08 02:11:51;;;;;;;15.02;5.28;;;;;;;3.06;86.19;101259.50;5070890;28;20531;-70
2021/05/08 02:14:17;;;;;;;14.10;4.93;;;;;;;3.05;86.89;101265.72;5053087;28;20036;-70
2021/05/08 02:16:43;;;;;;;11.18;4.35;;;;;;;3.06;86.79;101270.88;5070551;28;20310;-70
2021/05/08 02:19:09;;;;;;;13.82;4.60;;;;;;;3.03;87.45;101267.63;5070413;28;20550;-70
2021/05/08 02:21:35;;;;;;;10.93;5.00;;;;;;;3.02;87.23;101261.50;5070583;28;20032;-70
2021/05/08 02:24:02;;;;;;;14.40;4.72;;;;;;;3.02;87.29;101265.91;5036302;28;20115;-70
2021/05/08 02:26:27;;;;;;;;;;;;;;;3.06;87.42;101272.69;5052808;28;20461;-70
2021/05/08 02:28:52;;;;;;;;;;;;;;;3.12;87.68;101277.56;5053012;28;19977;-70
2021/05/08 02:31:18;;;;;;;14.70;5.40;;;;;;;3.16;87.72;101271.13;5070522;28;19912;-70
2021/05/08 02:33:43;;;;;;;23.17;6.00;;;;;;;3.22;87.54;101268.09;5070591;28;20028;-70
2021/05/08 02:36:08;;;;;;;13.80;5.83;;;;;;;3.18;87.42;101266.59;5070550;28;20369;-70
2021/05/08 02:38:34;;;;;;;24.02;5.45;;;;;;;3.08;87.33;101276.06;5070295;28;20033;-70
2021/05/08 02:41:02;;;;;;;19.08;5.70;;;;;;;2.94;87.28;101269.06;5052803;28;20040;-70
2021/05/08 02:43:28;;;;;;;20.42;5.10;;;;;;;2.94;88.07;101269.06;5052656;28;20032;-70
2021/05/08 02:46:01;;;;;;;15.13;5.78;;;;;;;2.90;88.22;101270.19;5052864;28;20045;-70
2021/05/08 02:48:27;;;;;;;12.02;6.28;;;;;;;2.88;88.22;101274.72;5052678;28;20036;-70
2021/05/08 02:50:55;;;;;;;15.88;5.90;;;;;;;2.98;88.84;101275.84;5070596;28;20535;-70
2021/05/08 02:53:20;;;;;;;11.07;5.28;;;;;;;3.01;88.80;101277.44;5036238;28;20075;-70
2021/05/08 02:55:46;;;;;;;13.77;5.73;;;;;;;2.99;88.53;101287.22;5070383;28;20444;-70
2021/05/08 02:58:11;;;;;;;13.40;6.03;;;;;;;2.88;88.51;101280.88;5070098;28;20367;-70
2021/05/08 03:00:39;;;;;;;13.55;5.65;;;;;;;2.84;88.08;101286.44;5052653;28;20032;-70
2021/05/08 03:03:09;;;;;;;15.68;5.55;;;;;;;2.74;88.03;101278.28;5070463;28;20055;-70
2021/05/08 03:05:37;;;;;;;14.23;4.88;;;;;;;2.64;87.73;101271.91;5052557;28;20039;-70
2021/05/08 03:08:10;;;;;;;15.93;5.25;;;;;;;2.70;88.43;101267.06;5052369;28;20038;-70
2021/05/08 03:10:35;;;;;;;19.80;5.93;;;;;;;2.81;88.50;101268.16;5035994;28;20032;-70
2021/05/08 03:13:01;;;;;;;16.20;6.23;;;;;;;2.69;88.38;101280.34;5070066;28;20055;-70
2021/05/08 03:15:27;;;;;;;12.13;5.27;;;;;;;2.69;88.43;101285.63;5070269;28;20025;-70
2021/05/08 03:17:52;;;;;;;16.65;5.93;;;;;;;2.59;88.33;101280.09;5035737;28;20055;-70
2021/05/08 03:20:19;;;;;;;18.77;6.37;;;;;;;2.76;89.67;101284.28;5070087;28;20505;-70
2021/05/08 03:22:46;;;;;;;13.52;5.95;;;;;;;2.74;89.32;101281.75;5036046;28;20472;-70
2021/05/08 03:25:11;;;;;;;19.80;6.07;;;;;;;2.73;89.15;101277.41;5052560;28;20103;-70
2021/05/08 03:27:37;;;;;;;10.90;4.82;;;;;;;2.69;88.83;101281.22;5052257;28;20369;-70
2021/05/08 03:30:03;;;;;;;16.40;7.03;;;;;;;2.79;89.91;101289.38;5052439;28;20037;-71
2021/05/08 03:32:30;;;;;;;12.93;6.85;;;;;;;2.84;90.11;101284.66;5052493;28;20029;-71
2021/05/08 03:34:55;;;;;;;14.50;6.43;;;;;;;2.82;89.78;101289.16;5052550;28;20050;-71
2021/05/08 03:37:23;;;;;;;11.40;5.45;;;;;;;2.81;89.55;101291.91;5070480;28;20066;-70
2021/05/08 03:39:49;;;;;;;22.73;5.60;;;;;;;2.91;89.60;101293.84;5056003;28;20040;-70
2021/05/08 03:42:14;;;;;;;11.70;6.00;;;;;;;3.01;89.59;101296.72;5073820;28;20106;-71
2021/05/08 03:44:39;;;;;;;12.40;6.13;;;;;;;3.04;89.12;101295.69;5039366;28;20032;-71
2021/05/08 03:47:05;;;;;;;25.80;7.87;;;;;;;3.13;89.39;101298.56;5039472;28;20024;-71
2021/05/08 03:49:30;;;;;;;14.70;5.67;;;;;;;3.24;89.01;101292.59;5073072;28;20458;-71
2021/05/08 03:52:04;;;;;;;18.80;7.10;;;;;;;3.34;88.73;101291.00;5073677;28;20628;-71
2021/05/08 03:54:29;;;;;;;19.45;6.18;;;;;;;3.39;88.38;101296.00;5055772;28;20052;-70
2021/05/08 03:56:56;;;;;;;20.42;7.28;;;;;;;3.40;88.20;101296.84;5073427;28;20028;-71
2021/05/08 03:59:22;;;;;;;20.15;7.15;;;;;;;3.43;88.16;101296.63;5055271;28;20040;-71
2021/05/08 04:01:47;;;;;;;15.73;7.73;;;;;;;3.49;87.80;101299.72;5073486;28;20091;-70
2021/05/08 04:04:12;;;;;;;18.70;6.57;;;;;;;3.54;87.46;101297.59;5073185;28;20044;-70
2021/05/08 04:06:38;;;;;;;16.13;7.27;;;;;;;3.63;87.26;101304.06;5055608;28;20419;-71
2021/05/08 04:09:07;;;;;;;19.13;6.93;;;;;;;3.66;87.25;101303.84;5073025;28;20374;-71
2021/05/08 04:11:34;;;;;;;22.52;7.43;;;;;;;3.62;86.87;101299.72;5055502;28;20606;-71
2021/05/08 04:13:59;;;;;;;18.05;7.80;;;;;;;3.63;86.42;101300.56;5073095;28;20036;-71
2021/05/08 04:16:24;;;;;;;15.93;6.30;;;;;;;3.53;85.94;101297.69;5073231;28;20128;-71
2021/05/08 04:18:50;;;;;;;19.53;7.83;;;;;;;3.54;86.33;101302.06;5072736;28;20064;-71
2021/05/08 04:21:15;;;;;;;26.95;7.25;;;;;;;3.62;86.30;101297.09;5073242;28;20044;-71
2021/05/08 04:23:41;;;;;;;20.23;6.73;;;;;;;3.65;86.16;101290.75;5055379;28;20044;-71
2021/05/08 04:26:06;;;;;;;24.67;6.60;;;;;;;3.58;85.95;101291.19;5073067;28;20041;-71
2021/05/08 04:28:31;;;;;;;20.60;7.37;;;;;;;3.64;86.10;101295.19;5055135;28;20089;-71
2021/05/08 04:30:57;;;;;;;23.00;8.03;;;;;;;3.67;86.02;101294.13;5072871;28;20034;-71
2021/05/08 04:33:22;;;;;;;21.97;6.37;;;;;;;3.74;85.92;101300.69;5055061;28;20048;-71
2021/05/08 04:35:47;;;;;;;16.30;6.40;;;;;;;3.81;85.98;101308.06;5072523;28;20097;-71
2021/05/08 04:38:13;;;;;;;32.47;7.27;;;;;;;3.90;85.29;101305.78;5054741;28;20051;-71
2021/05/08 04:40:38;;;;;;;16.60;6.43;;;;;;;3.97;84.74;101307.03;5072611;28;20028;-71
2021/05/08 04:43:03;;;;;;;14.83;5.87;;;;;;;4.07;84.73;101308.06;5055060;28;20453;-71
2021/05/08 04:45:29;;;;;;;15.03;5.50;;;;;;;4.15;84.35;101312.84;5055002;28;20039;-71
2021/05/08 04:47:56;;;;;;;22.23;6.63;;;;;;;4.27;83.38;101305.84;5054647;28;20458;-70
2021/05/08 04:50:23;;;;;;;14.50;5.95;;;;;;;4.33;83.03;101313.34;5054392;28;20043;-71
2021/05/08 04:52:49;;;;;;;18.48;6.43;;;;;;;4.33;83.05;101310.69;5072400;28;20032;-71
2021/05/08 04:55:14;;;;;;;22.60;5.63;;;;;;;4.49;82.77;101315.75;5071955;28;20084;-71
2021/05/08 04:57:40;;;;;;;12.90;5.10;;;;;;;4.61;81.75;101318.38;5054329;28;20085;-71
2021/05/08 05:00:06;;;;;;;18.53;7.67;;;;;;;4.85;81.90;101320.22;5054530;28;20044;-71
2021/05/08 05:02:31;;;;;;;12.75;5.72;;;;;;;5.04;80.50;101320.53;5037777;28;20040;-71
2021/05/08 05:04:56;;;;;;;18.97;5.37;;;;;;;5.01;79.60;101320.78;5072132;28;20044;-71
2021/05/08 05:07:22;;;;;;;17.43;5.33;;;;;;;5.10;79.74;101331.63;5054577;28;20036;-70
2021/05/08 05:09:47;;;;;;;22.93;6.67;;;;;;;5.22;78.78;101328.94;5071475;28;20052;-70
2021/05/08 05:12:12;;;;;;;17.70;4.40;;;;;;;5.81;77.43;101320.09;5054185;28;20048;-70
2021/05/08 05:14:40;;;;;;;15.90;4.53;;;;;;;6.26;74.80;101325.47;5071741;28;20040;-70
2021/05/08 05:17:05;;;;;;;14.63;4.25;;;;;;;7.36;72.12;101330.81;5071517;28;20370;-70
2021/05/08 05:19:30;;;;;;;12.37;3.93;;;;;;;8.36;68.18;101330.31;5071604;28;20029;-70
2021/05/08 05:21:55;;;;;;;10.70;4.33;;;;;;;9.18;65.29;101334.59;5053994;28;20028;-71
2021/05/08 05:24:21;;;;;;;12.90;4.33;;;;;;;9.46;62.18;101319.59;5071727;28;20043;-70
2021/05/08 05:26:46;;;;;;;8.73;3.83;;;;;;;8.85;64.20;101334.84;5071572;28;20033;-71
2021/05/08 05:29:11;;;;;;;17.23;3.87;;;;;;;9.16;62.69;101329.41;5053853;28;20428;-70
2021/05/08 05:31:40;;;;;;;12.80;3.93;;;;;;;9.62;61.83;101337.66;5053856;28;20591;-71
2021/05/08 05:34:05;;;;;;;9.27;3.70;;;;;;;9.80;61.69;101333.28;5053936;28;20055;-71
2021/05/08 05:36:31;;;;;;;8.80;3.80;;;;;;;9.76;61.16;101331.06;5071355;28;20040;-70
2021/05/08 05:39:01;;;;;;;16.00;4.63;;;;;;;10.43;59.70;101340.72;5083912;28;20144;-70
2021/05/08 05:41:26;;;;;;;10.73;3.65;;;;;;;10.58;58.51;101335.72;5088501;28;20788;-70
2021/05/08 05:43:52;;;;;;;12.03;3.43;;;;;;;10.73;59.23;101341.44;5091688;28;20040;-70
2021/05/08 05:46:17;;;;;;;22.73;5.47;;;;;;;10.40;58.18;101346.38;5074138;28;20421;-70
2021/05/08 05:48:42;;;;;;;8.53;5.57;;;;;;;11.28;56.04;101346.69;5056388;28;20028;-70
2021/05/08 05:51:08;;;;;;;14.27;4.93;;;;;;;11.04;56.66;101343.78;5091125;28;20461;-70
2021/05/08 05:53:34;;;;;;;20.63;4.55;;;;;;;11.53;56.01;101349.59;5091345;28;20372;-70
2021/05/08 05:55:59;;;;;;;8.80;2.80;;;;;;;11.19;56.84;101344.91;5073902;28;20032;-70
2021/05/08 05:58:25;;;;;;;10.17;3.80;;;;;;;11.98;54.44;101349.47;5091315;28;20082;-70
2021/05/08 06:00:50;;;;;;;19.30;4.37;;;;;;;10.68;58.30;101346.38;5090917;28;20031;-70
2021/05/08 06:03:16;;;;;;;11.70;4.23;;;;;;;11.55;54.93;101347.63;5091478;28;20036;-70
2021/05/08 06:05:41;;;;;;;11.13;3.20;;;;;;;10.70;58.28;101352.41;5073770;28;20100;-70
2021/05/08 06:08:10;;;;;;;13.53;3.13;;;;;;;11.92;55.35;101357.31;5073428;28;20094;-70
2021/05/08 06:10:35;;;;;;;10.40;3.58;;;;;;;11.98;55.12;101344.09;5073756;28;20036;-70
2021/05/08 06:13:01;;;;;;;15.67;4.37;;;;;;;12.00;53.92;101352.00;5073527;28;20089;-70
2021/05/08 06:15:26;;;;;;;9.90;3.97;;;;;;;10.74;56.83;101356.47;5073499;28;20044;-70
2021/05/08 06:17:51;;;;;;;10.17;3.40;;;;;;;11.09;55.81;101346.84;5091097;28;20074;-70
2021/05/08 06:20:17;;;;;;;12.00;3.87;;;;;;;11.34;55.30;101345.25;5091210;28;20101;-70
2021/05/08 06:22:42;;;;;;;16.67;3.63;;;;;;;12.29;53.40;101361.53;5091416;28;20074;-70
2021/05/08 06:25:09;;;;;;;11.73;3.13;;;;;;;12.61;52.89;101358.19;5091312;28;20343;-70
2021/05/08 06:27:35;;;;;;;16.52;3.90;;;;;;;12.43;52.04;101360.94;5091011;28;20046;-69
2021/05/08 06:30:00;;;;;;;13.30;3.63;;;;;;;11.33;55.17;101355.09;5091081;28;20111;-69
2021/05/08 06:32:25;;;;;;;12.47;3.93;;;;;;;11.92;54.83;101370.69;5091289;28;20040;-69
2021/05/08 06:34:51;;;;;;;11.50;3.00;;;;;;;12.87;51.90;101376.88;5073607;28;20090;-70
2021/05/08 06:37:16;;;;;;;16.67;4.20;;;;;;;12.92;52.06;101371.84;5073514;28;20047;-70
2021/05/08 06:39:42;;;;;;;15.15;4.85;;;;;;;12.45;52.69;101375.00;5073127;28;20039;-69
2021/05/08 06:42:08;;;;;;;9.43;2.90;;;;;;;12.51;53.43;101381.59;5056758;28;20449;-69
2021/05/08 06:44:33;;;;;;;13.57;4.20;;;;;;;12.62;52.25;101368.75;5073303;28;20103;-69
2021/05/08 06:46:59;;;;;;;25.80;3.87;;;;;;;12.36;53.14;101367.94;5091132;28;20028;-69
2021/05/08 06:49:24;;;;;;;12.27;3.40;;;;;;;12.36;53.07;101378.63;5072962;28;20036;-69
2021/05/08 06:51:50;;;;;;;16.10;3.80;;;;;;;12.43;52.91;101375.19;5073381;28;20031;-69
2021/05/08 06:54:15;;;;;;;10.13;3.60;;;;;;;13.18;49.73;101373.59;5073333;28;20437;-69
2021/05/08 06:56:42;;;;;;;11.50;4.33;;;;;;;12.64;52.22;101377.47;5073060;28;20040;-70
2021/05/08 06:59:07;;;;;;;11.70;3.05;;;;;;;12.35;53.35;101377.81;5090475;28;20675;-69
2021/05/08 07:01:33;;;;;;;12.57;3.50;;;;;;;12.35;52.67;101374.28;5056405;28;20040;-69
2021/05/08 07:03:58;;;;;;;16.87;3.87;;;;;;;12.44;52.45;101379.53;5073298;28;20034;-70
2021/05/08 07:06:24;;;;;;;13.43;3.00;;;;;;;12.48;52.92;101379.19;5073099;28;20058;-69
2021/05/08 07:08:50;;;;;;;9.52;2.95;;;;;;;12.52;52.13;101380.56;5072831;28;20114;-69
2021/05/08 07:11:15;;;;;;;8.85;3.00;;;;;;;13.23;52.13;101387.38;5090867;28;20181;-69
2021/05/08 07:13:41;;;;;;;13.20;3.47;;;;;;;12.31;50.90;101389.81;5060142;28;20062;-70
2021/05/08 07:16:06;;;;;;;13.87;3.03;;;;;;;10.39;57.79;101387.38;5094449;28;20031;-69
2021/05/08 07:18:32;;;;;;;8.70;3.00;;;;;;;10.05;58.73;101385.19;5076552;28;20042;-69
2021/05/08 07:20:57;;;;;;;14.93;3.87;;;;;;;10.67;57.30;101385.59;5076839;28;20040;-69
2021/05/08 07:23:22;;;;;;;15.47;3.33;;;;;;;10.62;57.21;101389.69;5094738;28;20043;-69
2021/05/08 07:25:48;;;;;;;14.63;4.80;;;;;;;10.84;57.08;101392.00;5076846;28;20043;-69
2021/05/08 07:28:21;;;;;;;7.50;2.67;;;;;;;11.16;56.03;101390.66;5076372;28;20088;-69
2021/05/08 07:30:48;;;;;;;9.75;3.45;;;;;;;12.21;55.29;101389.09;5094456;28;20040;-69
2021/05/08 07:33:16;;;;;;;13.15;3.30;;;;;;;12.28;53.11;101392.00;5076553;28;20028;-69
2021/05/08 07:35:42;;;;;;;12.15;3.40;;;;;;;11.73;54.77;101399.25;5076364;28;20035;-69
2021/05/08 07:38:08;;;;;;;9.88;2.95;;;;;;;12.64;53.22;101403.38;5093876;28;20043;-69
2021/05/08 07:40:35;;;;;;;16.30;4.15;;;;;;;12.52;50.87;101399.31;5094279;28;20044;-70
2021/05/08 07:43:01;;;;;;;10.15;3.25;;;;;;;12.70;50.11;101399.25;5094054;28;20058;-69
2021/05/08 07:45:27;;;;;;;16.77;3.30;;;;;;;11.44;52.38;101395.97;5094192;28;20693;-69
2021/05/08 07:47:53;;;;;;;6.50;2.83;;;;;;;11.90;51.57;101399.44;5093863;28;20286;-70
2021/05/08 07:50:19;;;;;;;8.65;2.50;;;;;;;11.96;51.81;101396.97;5094162;28;20480;-70
2021/05/08 07:52:45;;;;;;;12.30;3.15;;;;;;;12.04;51.89;101391.66;5094057;28;20032;-69
2021/05/08 07:55:11;;;;;;;9.30;3.07;;;;;;;11.86;51.08;101390.00;5076268;28;20338;-70
2021/05/08 07:57:37;;;;;;;14.73;3.30;;;;;;;11.52;51.07;101383.53;5075694;28;20024;-70
2021/05/08 08:00:07;;;;;;;7.97;2.55;;;;;;;10.93;54.04;101383.09;5076081;28;20039;-69
2021/05/08 08:02:34;;;;;;;11.02;3.33;;;;;;;10.85;53.50;101391.00;5085665;28;20115;-69
2021/05/08 08:05:00;;;;;;;9.03;2.70;;;;;;;11.31;51.77;101383.00;5093872;28;20120;-69
2021/05/08 08:07:26;;;;;;;8.80;2.60;;;;;;;12.10;52.46;101398.22;5059181;28;20818;-70
2021/05/08 08:09:51;;;;;;;13.63;2.43;;;;;;;12.25;49.22;101393.97;5075863;28;20118;-69
2021/05/08 08:12:17;;;;;;;5.97;2.37;;;;;;;12.00;49.46;101394.81;5075712;28;20486;-70
2021/05/08 08:14:42;;;;;;;6.27;2.23;;;;;;;12.65;49.01;101392.53;5093646;28;20043;-70
2021/05/08 08:17:08;;;;;;;13.40;2.80;;;;;;;13.66;48.02;101393.50;5075853;28;20103;-70
2021/05/08 08:19:33;;;;;;;8.60;2.47;;;;;;;14.61;44.53;101392.88;5074656;28;20483;-70
2021/05/08 08:21:59;;;;;;;12.67;2.53;;;;;;;14.01;44.24;101396.84;5058555;28;20115;-70
2021/05/08 08:24:25;;;;;;;8.93;2.23;;;;;;;12.57;47.07;101397.84;5056494;28;20432;-70
2021/05/08 08:26:50;;;;;;;11.60;2.15;;;;;;;11.91;50.74;101403.75;5091681;28;20064;-70
2021/05/08 08:29:16;;;;;;;10.70;3.67;;;;;;;11.31;50.90;101399.88;5091994;28;20040;-70
2021/05/08 08:31:43;;;;;;;9.13;2.90;;;;;;;11.26;50.76;101406.63;5074815;28;20032;-70
2021/05/08 08:34:08;;;;;;;8.75;3.03;;;;;;;11.31;49.85;101404.38;5075524;28;20035;-70
2021/05/08 08:36:34;;;;;;;8.03;2.60;;;;;;;11.36;51.21;101404.75;5073701;28;20089;-66
2021/05/08 08:38:59;;;;;;;13.57;2.27;;;;;;;11.33;48.94;101403.22;5056886;28;20082;-64
2021/05/08 08:41:25;;;;;;;14.07;3.83;;;;;;;11.27;50.39;101405.66;5091471;28;20067;-64
2021/05/08 08:43:50;;;;;;;9.97;3.17;;;;;;;10.63;51.91;101404.72;5091513;28;20040;-64
2021/05/08 08:46:17;;;;;;;10.97;2.90;;;;;;;11.88;50.15;101406.75;5091467;28;20226;-64
2021/05/08 08:48:43;;;;;;;13.23;3.28;;;;;;;12.73;46.73;101401.59;5091108;28;20054;-64
2021/05/08 08:51:08;;;;;;;9.98;3.00;;;;;;;13.02;46.76;101395.88;5092340;28;20115;-65
2021/05/08 08:53:35;;;;;;;12.43;2.63;;;;;;;13.19;47.26;101399.44;5058211;28;20102;-65
2021/05/08 08:56:02;;;;;;;7.00;2.22;;;;;;;13.39;45.63;101390.13;5074090;28;20090;-65
2021/05/08 08:58:32;;;;;;;9.27;2.47;;;;;;;14.33;43.49;101380.69;5090595;28;20040;-65
2021/05/08 09:00:59;;;;;;;7.15;2.30;;;;;;;14.84;42.05;101393.78;5091282;28;20020;-65
2021/05/08 09:03:24;;;;;;;14.75;2.78;;;;;;;13.95;42.46;101387.59;5073000;28;20461;-65
2021/05/08 09:05:51;;;;;;;6.75;1.83;;;;;;;13.47;42.95;101384.75;5073350;28;20065;-65
2021/05/08 09:08:16;;;;;;;;;;;;;;;13.98;43.13;101389.09;5091437;28;20040;-65
2021/05/08 09:10:42;;;;;;;7.40;2.08;;;;;;;14.25;41.41;101378.00;5055729;28;19923;-65
2021/05/08 09:13:18;;;;;;;5.23;1.73;;;;;;;14.64;39.17;101379.94;5092376;28;20454;-65
2021/05/08 09:15:46;;;;;;;4.40;2.25;;;;;;;15.01;40.20;101378.44;5074698;28;20082;-65
2021/05/08 09:18:36;;;;;;;8.82;2.40;;;;;;;15.34;37.27;101375.56;5092052;28;20035;-65
2021/05/08 09:21:07;;;;;;;5.80;1.98;;;;;;;15.27;38.15;101382.66;5092164;28;20544;-65
2021/05/08 09:23:38;;;;;;;6.00;2.00;;;;;;;15.10;38.85;101373.81;5074213;28;20081;-65
2021/05/08 09:26:10;;;;;;;8.27;2.13;;;;;;;15.26;36.80;101368.34;5092199;28;20035;-65
2021/05/08 09:28:40;;;;;;;6.43;2.00;;;;;;;15.66;38.52;101366.38;5091826;28;20036;-65
2021/05/08 09:31:07;;;;;;;8.75;2.25;;;;;;;15.49;38.10;101371.06;5091879;28;20118;-65
2021/05/08 09:33:33;;;;;;;4.28;1.88;;;;;;;15.24;39.12;101364.16;5057230;28;20034;-66
2021/05/08 09:35:59;;;;;;;5.70;2.00;;;;;;;15.54;39.04;101365.13;5090012;28;20048;-65
2021/05/08 09:38:30;;;;;;;4.40;2.23;;;;;;;16.21;36.43;101364.41;5073956;28;20122;-65
2021/05/08 09:40:56;;;;;;;8.32;2.28;;;;;;;15.21;39.08;101373.44;5092042;28;20445;-65
2021/05/08 09:43:21;;;;;;;7.18;2.30;;;;;;;14.66;39.58;101364.47;5073285;28;20046;-65
2021/05/08 09:45:52;;;;;;;7.50;2.42;;;;;;;14.69;40.21;101369.50;5091237;28;20039;-65
2021/05/08 09:48:31;;;;;;;8.77;2.60;;;;;;;14.62;41.13;101368.53;5091452;28;20051;-65
2021/05/08 09:51:15;;;;;;;5.80;2.10;;;;;;;13.65;39.81;101362.28;5074029;28;20488;-65
2021/05/08 09:53:42;;;;;;;6.93;2.50;;;;;;;13.60;43.06;101370.00;5091822;28;20032;-65
2021/05/08 09:56:43;;;;;;;9.75;2.38;;;;;;;13.82;44.91;101357.78;5056902;28;20036;-65
2021/05/08 09:59:26;;;;;;;6.47;1.92;;;;;;;14.69;39.20;101358.75;5091249;28;20407;-65
2021/05/08 10:02:04;;;;;;;10.90;2.50;;;;;;;15.20;39.74;101352.94;5073820;28;20542;-65
2021/05/08 10:04:36;;;;;;;19.83;3.47;;;;;;;14.65;40.29;101340.47;5073570;28;20051;-65
2021/05/08 10:07:09;;;;;;;7.25;1.77;;;;;;;14.96;39.04;101332.41;5073789;28;20039;-65
2021/05/08 10:09:37;;;;;;;6.65;2.05;;;;;;;14.36;38.32;101342.72;5091248;28;20109;-65
2021/05/08 10:12:05;;;;;;;3.97;1.70;;;;;;;14.77;37.75;101333.69;5091311;28;20111;-65
2021/05/08 10:14:31;;;;;;;5.15;1.80;;;;;;;15.24;37.18;101338.13;5073652;28;20055;-65
2021/05/08 10:16:58;;;;;;;7.82;2.13;;;;;;;15.01;35.86;101331.88;5073569;28;20119;-65
2021/05/08 10:19:24;;;;;;;3.90;1.70;;;;;;;13.51;38.85;101334.31;5056597;28;20459;-64
2021/05/08 10:21:50;;;;;;;4.63;1.40;;;;;;;13.95;39.60;101339.28;5091309;28;20115;-64
2021/05/08 10:24:15;;;;;;;5.00;1.65;;;;;;;13.99;38.80;101329.88;5056958;28;20123;-64
2021/05/08 10:26:43;;;;;;;6.70;1.97;;;;;;;13.51;39.72;101331.63;5091292;28;20114;-64
2021/05/08 10:29:09;;;;;;;5.57;1.75;;;;;;;14.28;40.83;101323.09;5091005;28;20028;-64
2021/05/08 10:31:34;;;;;;;8.30;2.03;;;;;;;14.50;38.37;101311.59;5073314;28;20103;-64
2021/05/08 10:34:01;;;;;;;3.97;1.70;;;;;;;14.93;38.80;101324.69;5091197;28;20401;-65
2021/05/08 10:36:48;;;;;;;5.60;1.73;;;;;;;14.12;38.09;101318.63;5073030;28;20040;-65
2021/05/08 10:39:13;;;;;;;6.35;1.58;;;;;;;13.92;40.25;101319.00;5073228;28;20080;-64
2021/05/08 10:41:52;;;;;;;4.07;2.13;;;;;;;15.29;36.52;101316.03;5091041;28;20032;-65
2021/05/08 10:44:43;;;;;;;6.70;2.15;;;;;;;15.37;36.65;101316.00;5090958;28;20085;-65
2021/05/08 10:47:09;;;;;;;4.00;2.08;;;;;;;15.65;36.85;101315.44;5092870;28;20035;-65
2021/05/08 10:49:34;;;;;;;5.20;2.08;;;;;;;16.79;33.73;101308.81;5077332;28;20046;-65
2021/05/08 10:52:03;;;;;;;5.83;2.27;;;;;;;16.52;33.79;101309.47;5095286;28;20024;-65
2021/05/08 10:54:44;;;;;;;5.30;2.28;;;;;;;17.00;34.71;101304.47;5077346;28;20458;-65
2021/05/08 10:57:19;;;;;;;6.82;2.78;;;;;;;17.21;32.30;101300.97;5095043;28;20059;-65
2021/05/08 11:00:03;;;;;;;6.47;1.90;;;;;;;15.73;35.60;101302.78;5094811;28;20031;-65
2021/05/08 11:02:40;;;;;;;4.40;2.85;;;;;;;17.55;33.04;101308.31;5094966;28;20044;-65
2021/05/08 11:05:22;;;;;;;5.70;1.80;;;;;;;17.43;31.29;101307.16;5077049;28;20040;-65
2021/05/08 11:07:47;;;;;;;7.15;1.58;;;;;;;17.05;31.66;101307.44;5076842;28;20418;-65
2021/05/08 11:10:37;;;;;;;8.90;2.30;;;;;;;17.40;31.99;101299.47;5094942;28;20131;-65
2021/05/08 11:13:14;;;;;;;6.65;1.70;;;;;;;17.86;29.26;101301.72;5077082;28;20093;-65
2021/05/08 11:18:32;;;;;;;6.03;1.50;;;;;;;18.43;30.99;101288.97;5094299;28;20068;-65
2021/05/08 11:20:58;;;;;;;4.22;1.75;;;;;;;17.93;29.45;101279.16;5058645;28;20050;-65
2021/05/08 11:23:23;;;;;;;4.80;2.03;;;;;;;17.29;30.48;101282.75;5075017;28;20040;-65
2021/05/08 11:25:49;;;;;;;4.23;1.53;;;;;;;16.06;32.32;101296.19;5075149;28;20488;-65
2021/05/08 11:28:15;;;;;;;3.10;1.73;;;;;;;15.37;37.63;101286.41;5092571;28;20028;-65